Time;durP1;ratioP1;P1;durP2;ratioP2;P2;SDS_P1;SDS_P2;PMS_P1;PMS_P2;Temp;Humidity;BMP_temperature;BMP_pressure;BME280_temperature;BME280_humidity;BME280_pressure;Samples;Min_cycle;Max_cycle;Signal;HPM_P1;HPM_P2
2023/08/13 00:00:49;;;;;;;1.63;1.30;;;26.40;55.80;;;;;;5081230;28;20082;-61
2023/08/13 00:03:15;;;;;;;2.08;1.33;;;26.40;55.80;;;;;;5080164;28;20515;-62
2023/08/13 00:05:40;;;;;;;1.95;1.33;;;26.40;56.30;;;;;;5076932;28;20028;-61
2023/08/13 00:08:06;;;;;;;1.90;1.20;;;26.40;55.80;;;;;;5078977;28;20480;-61
2023/08/13 00:10:32;;;;;;;1.83;1.30;;;26.40;55.80;;;;;;5081372;28;20036;-60
2023/08/13 00:12:57;;;;;;;1.80;1.30;;;26.40;55.80;;;;;;5081593;28;20107;-61
2023/08/13 00:15:23;;;;;;;1.60;1.20;;;26.40;55.80;;;;;;5080643;28;20509;-61
2023/08/13 00:17:48;;;;;;;1.67;1.20;;;26.40;55.80;;;;;;5081570;28;20123;-61
2023/08/13 00:20:15;;;;;;;1.88;1.17;;;26.40;55.80;;;;;;5078815;28;20036;-62
2023/08/13 00:22:40;;;;;;;1.95;1.20;;;26.40;55.80;;;;;;5081439;28;20036;-60
2023/08/13 00:25:07;;;;;;;1.73;1.15;;;26.40;55.70;;;;;;5080295;28;20028;-61
2023/08/13 00:27:33;;;;;;;1.67;1.10;;;26.40;55.70;;;;;;5081636;28;20536;-61
2023/08/13 00:29:59;;;;;;;1.48;1.15;;;26.40;55.70;;;;;;5080373;28;20028;-61
2023/08/13 00:32:24;;;;;;;1.25;1.10;;;26.40;56.20;;;;;;5077784;28;20024;-62
2023/08/13 00:34:50;;;;;;;1.70;1.30;;;26.30;55.60;;;;;;5078735;28;20039;-65
2023/08/13 00:37:16;;;;;;;1.67;1.17;;;26.40;55.70;;;;;;5080519;28;20059;-63
2023/08/13 00:39:42;;;;;;;1.60;1.23;;;26.40;55.70;;;;;;5078754;28;20043;-61
2023/08/13 00:42:08;;;;;;;1.92;1.40;;;26.30;55.70;;;;;;5080204;28;20028;-65
2023/08/13 00:44:34;;;;;;;1.85;1.15;;;26.30;55.60;;;;;;5080054;28;20060;-60
2023/08/13 00:47:00;;;;;;;1.65;1.30;;;26.30;55.60;;;;;;5080813;28;20035;-61
2023/08/13 00:49:26;;;;;;;1.73;1.10;;;26.30;55.60;;;;;;5078491;28;20028;-62
2023/08/13 00:51:52;;;;;;;1.35;1.10;;;26.30;55.60;;;;;;5079464;28;20081;-60
2023/08/13 00:54:18;;;;;;;1.60;1.20;;;26.30;55.60;;;;;;5079652;28;20111;-61
2023/08/13 00:56:46;;;;;;;1.80;1.27;;;26.30;55.60;;;;;;5080871;28;20029;-62
2023/08/13 00:59:12;;;;;;;1.70;1.20;;;26.30;56.10;;;;;;5083057;28;20598;-60
2023/08/13 01:01:38;;;;;;;2.00;1.30;;;26.30;55.60;;;;;;5080174;28;20028;-61
2023/08/13 01:04:07;;;;;;;1.20;1.08;;;26.30;55.60;;;;;;5077970;28;20053;-61
2023/08/13 01:06:43;;;;;;;2.00;1.20;;;26.30;55.60;;;;;;5079403;28;20380;-61
2023/08/13 01:09:32;;;;;;;1.60;1.10;;;26.30;55.60;;;;;;5080916;28;20111;-67
2023/08/13 01:12:07;;;;;;;1.90;1.30;;;26.30;55.60;;;;;;5078386;28;20046;-67
2023/08/13 01:14:40;;;;;;;1.48;1.20;;;26.30;55.50;;;;;;5080206;28;20020;-68
2023/08/13 01:17:07;;;;;;;1.45;1.15;;;26.30;55.50;;;;;;5079503;28;20025;-69
2023/08/13 01:19:33;;;;;;;1.88;1.33;;;26.30;55.50;;;;;;5079099;28;20028;-61
2023/08/13 01:21:58;;;;;;;2.20;1.40;;;26.30;55.50;;;;;;5080513;28;20028;-61
2023/08/13 01:24:24;;;;;;;1.63;1.30;;;26.30;55.50;;;;;;5079611;28;20106;-62
2023/08/13 01:27:19;;;;;;;2.10;1.30;;;26.30;55.50;;;;;;5077413;28;20103;-61
2023/08/13 01:29:52;;;;;;;1.42;1.10;;;26.30;55.50;;;;;;5079608;28;20115;-69
2023/08/13 01:32:24;;;;;;;1.50;1.02;;;26.30;55.50;;;;;;5079044;28;20027;-68
2023/08/13 01:34:51;;;;;;;1.20;1.00;;;26.30;55.50;;;;;;5077651;28;20104;-69
2023/08/13 01:37:20;;;;;;;1.75;1.20;;;26.30;55.40;;;;;;5062763;28;20028;-69
2023/08/13 01:39:47;;;;;;;1.98;1.20;;;26.30;55.40;;;;;;5080536;28;20043;-68
2023/08/13 01:42:12;;;;;;;1.35;1.10;;;26.30;55.50;;;;;;5080158;28;20070;-70
2023/08/13 01:44:38;;;;;;;1.90;1.23;;;26.30;55.40;;;;;;5078046;28;20028;-69
2023/08/13 01:47:04;;;;;;;1.55;1.10;;;26.30;55.40;;;;;;5078480;28;20060;-68
2023/08/13 01:49:31;;;;;;;1.85;1.38;;;26.20;55.30;;;;;;5078953;28;20093;-69
2023/08/13 01:51:57;;;;;;;1.48;1.10;;;26.30;55.40;;;;;;5077727;28;20467;-68
2023/08/13 01:54:22;;;;;;;1.55;1.20;;;26.30;55.40;;;;;;5076888;28;20105;-69
2023/08/13 01:56:48;;;;;;;1.60;1.10;;;26.30;55.40;;;;;;5078959;28;20050;-69
2023/08/13 01:59:15;;;;;;;1.35;1.00;;;26.20;55.30;;;;;;5079530;28;20040;-68
2023/08/13 02:01:40;;;;;;;1.90;1.10;;;26.30;55.40;;;;;;5079295;28;20104;-70
2023/08/13 02:04:06;;;;;;;1.67;1.20;;;26.20;55.30;;;;;;5077548;28;20123;-69
2023/08/13 02:06:33;;;;;;;1.55;1.05;;;26.20;55.30;;;;;;5077761;28;20463;-68
2023/08/13 02:09:00;;;;;;;1.52;1.10;;;26.20;55.30;;;;;;5077457;28;20076;-71
2023/08/13 02:11:26;;;;;;;1.35;1.05;;;26.30;55.40;;;;;;5079991;28;20133;-69
2023/08/13 02:13:51;;;;;;;1.85;1.20;;;26.20;55.30;;;;;;5076386;28;20027;-67
2023/08/13 02:16:17;;;;;;;1.30;1.10;;;26.20;55.30;;;;;;5078932;28;20024;-68
2023/08/13 02:18:42;;;;;;;1.48;1.10;;;26.30;55.30;;;;;;5076899;28;20081;-69
2023/08/13 02:21:08;;;;;;;1.58;1.10;;;26.20;55.30;;;;;;5077091;28;20027;-69
2023/08/13 02:23:33;;;;;;;1.45;1.13;;;26.20;55.20;;;;;;5079042;28;20032;-69
2023/08/13 02:25:59;;;;;;;1.55;1.25;;;26.20;55.20;;;;;;5078972;28;20024;-69
2023/08/13 02:28:25;;;;;;;1.80;1.15;;;26.20;55.20;;;;;;5079867;28;20024;-60
2023/08/13 02:30:51;;;;;;;1.60;1.10;;;26.30;55.30;;;;;;5077142;28;20123;-60
2023/08/13 02:33:16;;;;;;;1.13;1.00;;;26.30;55.30;;;;;;5077482;28;20566;-62
2023/08/13 02:35:42;;;;;;;1.85;1.20;;;26.20;55.20;;;;;;5078194;28;20108;-61
2023/08/13 02:38:08;;;;;;;2.22;1.10;;;26.30;55.20;;;;;;5078358;28;20429;-60
2023/08/13 02:40:33;;;;;;;1.33;1.10;;;26.20;55.20;;;;;;5078163;28;20522;-61
2023/08/13 02:42:59;;;;;;;1.42;1.10;;;26.20;55.20;;;;;;5077904;28;20028;-59
2023/08/13 02:45:25;;;;;;;1.23;0.93;;;26.20;55.20;;;;;;5079605;28;20024;-61
2023/08/13 02:47:50;;;;;;;1.30;1.10;;;26.20;55.20;;;;;;5076895;28;20056;-61
2023/08/13 02:50:16;;;;;;;1.58;1.10;;;26.20;55.10;;;;;;5077372;28;20122;-62
2023/08/13 02:52:42;;;;;;;2.58;1.20;;;26.20;55.10;;;;;;5062563;28;20074;-60
2023/08/13 02:55:08;;;;;;;1.30;0.93;;;26.20;55.10;;;;;;5076337;28;20032;-61
2023/08/13 02:57:33;;;;;;;1.70;1.23;;;26.20;55.10;;;;;;5077007;28;20089;-61
2023/08/13 02:59:59;;;;;;;1.50;1.08;;;26.20;55.10;;;;;;5078382;28;20501;-60
2023/08/13 03:02:24;;;;;;;1.58;1.10;;;26.20;55.10;;;;;;5074807;28;20069;-62
2023/08/13 03:04:51;;;;;;;2.00;1.30;;;26.20;55.10;;;;;;5078546;28;20150;-62
2023/08/13 03:07:16;;;;;;;2.05;1.20;;;26.20;55.10;;;;;;5080589;28;20141;-61
2023/08/13 03:09:42;;;;;;;1.42;1.05;;;26.20;55.10;;;;;;5081086;28;20499;-62
2023/08/13 03:12:08;;;;;;;1.38;1.10;;;26.20;55.10;;;;;;5082380;28;20095;-59
2023/08/13 03:14:33;;;;;;;1.60;1.17;;;26.20;55.10;;;;;;5082132;28;20464;-63
2023/08/13 03:16:59;;;;;;;1.95;1.13;;;26.20;55.10;;;;;;5080877;28;20075;-60
2023/08/13 03:19:25;;;;;;;1.30;1.10;;;26.20;55.10;;;;;;5082192;28;20028;-61
2023/08/13 03:21:50;;;;;;;1.63;1.25;;;26.20;55.10;;;;;;5080993;28;20028;-61
2023/08/13 03:24:16;;;;;;;1.63;1.20;;;26.20;55.10;;;;;;5081596;28;20020;-62
2023/08/13 03:26:41;;;;;;;1.40;1.10;;;26.20;55.10;;;;;;5080851;28;21103;-61
2023/08/13 03:29:07;;;;;;;1.23;0.93;;;26.20;55.10;;;;;;5081098;28;20040;-64
2023/08/13 03:31:33;;;;;;;1.70;1.25;;;26.20;55.10;;;;;;5082742;28;20026;-63
2023/08/13 03:33:58;;;;;;;1.92;1.40;;;26.20;55.00;;;;;;5080879;28;20443;-62
2023/08/13 03:36:24;;;;;;;1.50;1.20;;;26.20;55.00;;;;;;5077917;28;20096;-60
2023/08/13 03:38:50;;;;;;;1.42;1.20;;;26.20;55.00;;;;;;5079285;28;20028;-63
2023/08/13 03:41:15;;;;;;;1.60;1.10;;;26.20;55.00;;;;;;5081109;28;20404;-63
2023/08/13 03:43:41;;;;;;;1.30;1.15;;;26.10;55.00;;;;;;5080232;28;20542;-62
2023/08/13 03:46:06;;;;;;;1.42;1.10;;;26.20;55.00;;;;;;5080893;28;20044;-63
2023/08/13 03:48:32;;;;;;;1.80;1.10;;;26.20;55.00;;;;;;5080744;28;20047;-60
2023/08/13 03:50:58;;;;;;;1.63;1.30;;;26.20;55.00;;;;;;5080025;28;20028;-60
2023/08/13 03:53:24;;;;;;;1.77;1.20;;;26.20;55.00;;;;;;5081247;28;20028;-60
2023/08/13 03:55:50;;;;;;;2.08;1.13;;;26.20;55.00;;;;;;5080047;28;20020;-63
2023/08/13 03:58:16;;;;;;;1.33;1.10;;;26.20;55.00;;;;;;5081512;28;20065;-62
2023/08/13 04:00:42;;;;;;;1.33;1.05;;;26.10;54.90;;;;;;5081183;28;20048;-62
2023/08/13 04:03:09;;;;;;;1.40;1.05;;;26.10;54.90;;;;;;5078991;28;20043;-63
2023/08/13 04:05:35;;;;;;;1.40;1.10;;;26.10;54.90;;;;;;5081035;28;20157;-61
2023/08/13 04:08:00;;;;;;;1.67;1.10;;;26.10;54.90;;;;;;5079415;28;20392;-62
2023/08/13 04:10:26;;;;;;;1.55;1.08;;;26.10;54.90;;;;;;5081095;28;20028;-61
2023/08/13 04:12:53;;;;;;;2.05;1.40;;;26.10;54.90;;;;;;5079091;28;20036;-63
2023/08/13 04:15:19;;;;;;;1.20;1.00;;;26.10;54.90;;;;;;5080190;28;20166;-64
2023/08/13 04:17:44;;;;;;;1.35;1.00;;;26.10;54.90;;;;;;5081125;28;20032;-63
2023/08/13 04:20:11;;;;;;;1.38;1.15;;;26.10;54.90;;;;;;5077471;28;20043;-62
2023/08/13 04:22:36;;;;;;;1.58;1.17;;;26.10;54.90;;;;;;5077568;28;20110;-61
2023/08/13 04:25:02;;;;;;;1.58;1.10;;;26.10;54.90;;;;;;5081619;28;20120;-61
2023/08/13 04:27:28;;;;;;;1.63;1.20;;;26.10;54.90;;;;;;5080198;28;20381;-62
2023/08/13 04:29:53;;;;;;;3.35;1.10;;;26.10;54.90;;;;;;5080737;28;20044;-62
2023/08/13 04:32:19;;;;;;;1.48;1.15;;;26.10;54.90;;;;;;5064117;28;20105;-61
2023/08/13 04:34:44;;;;;;;1.38;0.98;;;26.10;54.80;;;;;;5080939;28;20025;-61
2023/08/13 04:37:10;;;;;;;1.48;1.00;;;26.10;54.90;;;;;;5077806;28;20020;-61
2023/08/13 04:39:36;;;;;;;1.63;1.10;;;26.10;54.90;;;;;;5081244;28;20020;-60
2023/08/13 04:42:01;;;;;;;1.42;1.10;;;26.00;54.80;;;;;;5079280;28;20063;-61
2023/08/13 04:44:27;;;;;;;1.35;1.00;;;26.10;54.90;;;;;;5079378;28;20048;-62
2023/08/13 04:46:53;;;;;;;1.52;1.10;;;26.10;54.90;;;;;;5080995;28;20050;-61
2023/08/13 04:49:19;;;;;;;2.17;1.20;;;26.10;54.80;;;;;;5079705;28;20025;-67
2023/08/13 04:51:44;;;;;;;1.38;1.05;;;26.10;54.80;;;;;;5080086;28;20028;-69
2023/08/13 04:54:10;;;;;;;1.70;1.10;;;26.10;54.90;;;;;;5079865;28;20403;-68
2023/08/13 04:56:36;;;;;;;1.45;1.10;;;26.10;54.90;;;;;;5079966;28;20025;-69
2023/08/13 04:59:01;;;;;;;1.98;1.10;;;26.10;54.90;;;;;;5079819;28;20482;-61
2023/08/13 05:01:27;;;;;;;2.13;1.10;;;26.10;54.80;;;;;;5080067;28;20024;-62
2023/08/13 05:03:56;;;;;;;1.27;0.93;;;26.10;54.90;;;;;;5079956;28;20028;-61
2023/08/13 05:06:22;;;;;;;2.00;1.20;;;26.00;54.80;;;;;;5076226;28;20480;-61
2023/08/13 05:08:47;;;;;;;1.67;1.25;;;26.00;54.80;;;;;;5079096;28;20029;-61
2023/08/13 05:11:13;;;;;;;1.55;1.10;;;26.00;54.80;;;;;;5079109;28;20040;-61
2023/08/13 05:13:39;;;;;;;1.50;1.25;;;26.00;54.80;;;;;;5078899;28;20074;-63
2023/08/13 05:16:05;;;;;;;1.63;1.00;;;26.00;54.80;;;;;;5080564;28;20065;-63
2023/08/13 05:18:30;;;;;;;1.48;1.10;;;26.00;55.30;;;;;;5079962;28;20028;-59
2023/08/13 05:20:56;;;;;;;1.33;1.08;;;26.00;54.80;;;;;;5078596;28;20042;-62
2023/08/13 05:23:21;;;;;;;1.00;0.90;;;26.00;54.80;;;;;;5077527;28;20029;-59
2023/08/13 05:25:47;;;;;;;1.52;1.10;;;26.00;54.80;;;;;;5079025;28;20097;-60
2023/08/13 05:28:13;;;;;;;1.15;0.95;;;26.00;54.80;;;;;;5079842;28;20141;-61
2023/08/13 05:30:39;;;;;;;1.35;1.00;;;26.00;54.80;;;;;;5063994;28;20845;-61
2023/08/13 05:33:04;;;;;;;1.75;1.10;;;26.00;54.80;;;;;;5080007;28;20047;-61
2023/08/13 05:35:30;;;;;;;1.35;1.17;;;26.00;54.80;;;;;;5080358;28;20495;-61
2023/08/13 05:37:56;;;;;;;1.80;1.10;;;26.00;54.80;;;;;;5059873;28;20494;-59
2023/08/13 05:40:22;;;;;;;1.17;1.00;;;26.00;54.80;;;;;;5079399;28;20116;-60
2023/08/13 05:42:49;;;;;;;1.60;1.20;;;26.00;54.80;;;;;;5079671;28;20475;-63
2023/08/13 05:45:15;;;;;;;1.63;1.10;;;26.00;54.80;;;;;;5079576;28;20494;-61
2023/08/13 05:47:41;;;;;;;1.90;1.17;;;26.00;54.80;;;;;;5078745;28;20120;-59
2023/08/13 05:50:07;;;;;;;1.60;1.15;;;26.00;54.80;;;;;;5061246;28;20120;-60
2023/08/13 05:52:32;;;;;;;1.75;1.10;;;26.00;54.80;;;;;;5077755;28;20094;-62
2023/08/13 05:54:58;;;;;;;1.60;1.20;;;26.00;54.80;;;;;;5078959;28;20391;-61
2023/08/13 05:57:24;;;;;;;1.20;0.93;;;26.00;54.80;;;;;;5082575;28;20620;-61
2023/08/13 05:59:49;;;;;;;1.70;1.10;;;26.00;54.80;;;;;;5077899;28;20031;-68
2023/08/13 06:02:15;;;;;;;1.55;1.10;;;26.00;54.80;;;;;;5080096;28;20072;-70
2023/08/13 06:04:41;;;;;;;1.88;1.20;;;26.00;54.80;;;;;;5079452;28;20093;-70
2023/08/13 06:07:06;;;;;;;1.33;1.13;;;25.90;54.80;;;;;;5077656;28;20017;-70
2023/08/13 06:09:32;;;;;;;1.63;1.20;;;26.00;54.80;;;;;;5079494;28;20025;-69
2023/08/13 06:11:58;;;;;;;1.42;1.10;;;25.90;54.80;;;;;;5079524;28;20379;-68
2023/08/13 06:14:23;;;;;;;1.80;1.20;;;25.90;54.80;;;;;;5078653;28;20637;-69
2023/08/13 06:16:49;;;;;;;1.60;1.20;;;26.00;54.80;;;;;;5080839;28;20031;-66
2023/08/13 06:19:15;;;;;;;1.60;1.20;;;25.90;54.80;;;;;;5078711;28;20035;-68
2023/08/13 06:21:40;;;;;;;1.60;1.20;;;25.90;54.80;;;;;;5075729;28;20103;-67
2023/08/13 06:24:06;;;;;;;1.50;1.20;;;25.90;54.80;;;;;;5078806;28;20454;-69
2023/08/13 06:26:32;;;;;;;1.55;1.20;;;25.90;54.80;;;;;;5077659;28;20105;-69
2023/08/13 06:29:00;;;;;;;1.52;0.98;;;25.90;54.80;;;;;;5078029;28;20466;-67
2023/08/13 06:31:26;;;;;;;1.48;1.15;;;25.90;54.80;;;;;;5080984;28;20158;-68
2023/08/13 06:33:52;;;;;;;1.63;1.02;;;25.90;54.80;;;;;;5080382;28;20535;-68
2023/08/13 06:36:17;;;;;;;1.70;1.20;;;25.90;54.80;;;;;;5077817;28;20456;-68
2023/08/13 06:38:43;;;;;;;1.92;1.20;;;25.90;54.80;;;;;;5079605;28;20488;-68
2023/08/13 06:41:09;;;;;;;1.80;1.27;;;25.90;54.80;;;;;;5077150;28;20037;-68
2023/08/13 06:43:35;;;;;;;2.17;1.30;;;25.90;54.90;;;;;;5081711;28;20458;-68
2023/08/13 06:46:01;;;;;;;1.60;1.10;;;25.90;54.90;;;;;;5082168;28;20101;-68
2023/08/13 06:48:31;;;;;;;1.70;1.20;;;25.90;54.90;;;;;;5081895;28;20023;-68
2023/08/13 06:50:58;;;;;;;1.50;1.10;;;25.90;54.90;;;;;;5080986;28;20403;-68
2023/08/13 06:53:24;;;;;;;1.70;1.20;;;25.90;54.90;;;;;;5081171;28;20039;-68
2023/08/13 06:55:50;;;;;;;1.67;1.23;;;25.90;54.90;;;;;;5083383;28;20033;-68
2023/08/13 06:58:16;;;;;;;1.55;1.20;;;25.90;54.90;;;;;;5081857;28;20479;-69
2023/08/13 07:00:42;;;;;;;1.40;1.10;;;25.90;54.90;;;;;;5080335;28;20033;-62
2023/08/13 07:03:09;;;;;;;1.92;1.40;;;25.80;54.80;;;;;;5082296;28;20051;-62
2023/08/13 07:05:36;;;;;;;1.67;1.30;;;25.90;54.90;;;;;;5083054;28;20028;-62
2023/08/13 07:08:02;;;;;;;1.45;1.20;;;25.90;54.90;;;;;;5080037;28;20036;-62
2023/08/13 07:10:28;;;;;;;1.95;1.40;;;25.90;54.90;;;;;;5083368;28;20439;-68
2023/08/13 07:12:54;;;;;;;1.77;1.30;;;25.90;54.90;;;;;;5081619;28;20115;-68
2023/08/13 07:15:20;;;;;;;1.48;1.23;;;25.90;55.00;;;;;;5080997;28;20111;-68
2023/08/13 07:17:45;;;;;;;1.50;1.17;;;25.90;55.00;;;;;;5079913;28;20399;-68
2023/08/13 07:20:13;;;;;;;1.52;1.20;;;25.90;55.00;;;;;;5081087;28;20455;-62
2023/08/13 07:22:43;;;;;;;2.30;1.45;;;25.90;55.00;;;;;;5080940;28;20036;-62
2023/08/13 07:25:09;;;;;;;1.35;1.15;;;25.90;55.00;;;;;;5079577;28;20028;-62
2023/08/13 07:27:35;;;;;;;1.27;1.10;;;25.80;54.90;;;;;;5082777;28;20039;-62
2023/08/13 07:30:01;;;;;;;1.83;1.30;;;25.80;54.90;;;;;;5082752;28;20024;-62
2023/08/13 07:32:30;;;;;;;1.70;1.10;;;25.80;55.00;;;;;;5065371;28;20054;-61
2023/08/13 07:34:56;;;;;;;1.88;1.30;;;25.90;55.00;;;;;;5081601;28;20032;-63
2023/08/13 07:37:21;;;;;;;1.77;1.30;;;25.80;54.90;;;;;;5064812;28;20104;-62
2023/08/13 07:39:47;;;;;;;1.98;1.27;;;25.80;54.90;;;;;;5079296;28;20025;-62
2023/08/13 07:42:14;;;;;;;1.83;1.20;;;25.80;55.00;;;;;;5079440;28;20032;-63
2023/08/13 07:44:39;;;;;;;1.60;1.20;;;25.80;55.00;;;;;;5083555;28;20020;-62
2023/08/13 07:47:05;;;;;;;1.40;1.20;;;25.80;55.00;;;;;;5077667;28;20043;-63
2023/08/13 07:49:31;;;;;;;1.42;1.05;;;25.80;55.00;;;;;;5079662;28;20028;-64
2023/08/13 07:51:57;;;;;;;1.50;1.20;;;25.80;55.50;;;;;;5079161;28;20031;-64
2023/08/13 07:54:23;;;;;;;1.63;1.20;;;25.80;55.00;;;;;;5070528;28;20123;-64
2023/08/13 07:56:49;;;;;;;1.65;1.30;;;25.80;55.00;;;;;;5081667;28;20060;-64
2023/08/13 07:59:14;;;;;;;1.67;1.10;;;25.80;55.00;;;;;;5080305;28;20066;-64
2023/08/13 08:01:43;;;;;;;1.67;1.20;;;25.80;55.00;;;;;;5078738;28;20032;-64
2023/08/13 08:04:08;;;;;;;1.80;1.27;;;25.80;55.00;;;;;;5081393;28;20028;-64
2023/08/13 08:06:34;;;;;;;1.58;1.20;;;25.80;55.00;;;;;;5080460;28;20254;-64
2023/08/13 08:09:00;;;;;;;1.85;1.35;;;25.80;55.10;;;;;;5081903;28;20025;-62
2023/08/13 08:11:27;;;;;;;1.58;1.30;;;25.80;55.10;;;;;;5080888;28;20020;-65
2023/08/13 08:13:53;;;;;;;2.00;1.30;;;25.80;55.10;;;;;;5079298;28;20115;-65
2023/08/13 08:16:18;;;;;;;1.80;1.33;;;25.80;55.10;;;;;;5080250;28;20558;-65
2023/08/13 08:18:44;;;;;;;1.63;1.30;;;25.80;55.10;;;;;;5079940;28;20036;-65
2023/08/13 08:21:09;;;;;;;1.65;1.25;;;25.80;55.10;;;;;;5080931;28;20024;-65
2023/08/13 08:23:35;;;;;;;1.75;1.25;;;25.80;55.10;;;;;;5080628;28;20418;-66
2023/08/13 08:26:01;;;;;;;2.00;1.38;;;25.80;55.10;;;;;;5082694;28;20474;-65
2023/08/13 08:28:26;;;;;;;1.58;1.20;;;25.80;55.10;;;;;;5081155;28;20016;-65
2023/08/13 08:30:52;;;;;;;1.38;1.13;;;25.80;55.20;;;;;;5081542;28;20379;-64
2023/08/13 08:33:21;;;;;;;1.52;1.20;;;25.80;55.20;;;;;;5081372;28;20104;-64
2023/08/13 08:35:47;;;;;;;1.52;1.17;;;25.80;55.20;;;;;;5080751;28;20028;-64
2023/08/13 08:38:13;;;;;;;1.48;1.10;;;25.80;55.30;;;;;;5079785;28;20025;-64
2023/08/13 08:40:47;;;;;;;1.83;1.38;;;25.80;55.20;;;;;;5081772;28;20452;-64
2023/08/13 08:43:13;;;;;;;2.03;1.40;;;25.80;55.20;;;;;;5069923;28;20535;-64
2023/08/13 08:45:40;;;;;;;1.50;1.05;;;25.80;55.30;;;;;;5080298;28;20414;-64
2023/08/13 08:48:07;;;;;;;1.55;1.20;;;25.80;55.30;;;;;;5079184;28;20024;-64
2023/08/13 08:50:35;;;;;;;1.35;1.05;;;25.80;55.30;;;;;;5080626;28;20039;-64
2023/08/13 08:53:01;;;;;;;1.30;1.10;;;25.80;55.30;;;;;;5076677;28;20114;-64
2023/08/13 08:55:27;;;;;;;1.80;1.35;;;25.80;55.40;;;;;;5078300;28;20040;-64
2023/08/13 08:57:54;;;;;;;2.00;1.30;;;25.80;55.30;;;;;;5079572;28;20136;-64
2023/08/13 09:00:20;;;;;;;1.52;1.20;;;25.80;55.30;;;;;;5080283;28;20499;-64
2023/08/13 09:02:46;;;;;;;1.67;1.20;;;25.80;55.30;;;;;;5078234;28;20067;-64
2023/08/13 09:05:12;;;;;;;1.45;1.15;;;25.80;55.30;;;;;;5078352;28;20061;-64
2023/08/13 09:07:44;;;;;;;1.50;1.10;;;25.80;55.40;;;;;;5078686;28;20028;-64
2023/08/13 09:10:10;;;;;;;1.88;1.25;;;25.80;55.40;;;;;;5079412;28;20056;-64
2023/08/13 09:12:37;;;;;;;1.52;1.13;;;25.80;55.90;;;;;;5077987;28;20067;-64
2023/08/13 09:15:08;;;;;;;1.80;1.35;;;25.80;55.40;;;;;;5080480;28;20024;-64
2023/08/13 09:17:34;;;;;;;1.80;1.30;;;25.80;55.40;;;;;;5078170;28;20029;-64
2023/08/13 09:20:20;;;;;;;1.65;1.20;;;25.80;55.30;;;;;;5078577;28;20029;-64
2023/08/13 09:22:50;;;;;;;1.65;1.20;;;25.80;55.40;;;;;;5078617;28;20514;-64
2023/08/13 09:25:17;;;;;;;1.67;1.20;;;25.80;55.40;;;;;;5077391;28;20032;-64
2023/08/13 09:27:43;;;;;;;1.55;1.20;;;25.80;55.40;;;;;;5078236;28;20044;-64
2023/08/13 09:30:12;;;;;;;1.58;1.20;;;25.80;55.40;;;;;;5078343;28;20028;-68
2023/08/13 09:32:38;;;;;;;1.98;1.20;;;25.80;55.40;;;;;;5078417;28;20024;-68
2023/08/13 09:35:04;;;;;;;1.58;1.20;;;25.80;55.40;;;;;;5080283;28;20033;-70
2023/08/13 09:37:30;;;;;;;1.65;1.20;;;25.80;55.40;;;;;;5080930;28;20025;-67
2023/08/13 09:39:56;;;;;;;1.65;1.20;;;25.70;55.40;;;;;;5076738;28;20540;-60
2023/08/13 09:42:23;;;;;;;1.83;1.23;;;25.80;55.40;;;;;;5082208;28;20405;-60
2023/08/13 09:44:51;;;;;;;1.63;1.20;;;25.80;55.40;;;;;;5082237;28;20579;-61
2023/08/13 09:47:24;;;;;;;1.47;1.20;;;25.80;55.40;;;;;;5078067;28;20033;-59
2023/08/13 09:49:50;;;;;;;1.42;1.10;;;25.70;55.40;;;;;;5080159;28;20138;-60
2023/08/13 09:52:22;;;;;;;1.45;1.20;;;25.70;55.40;;;;;;5079133;28;20415;-61
2023/08/13 09:54:54;;;;;;;1.33;1.08;;;25.70;55.40;;;;;;5076237;28;20490;-60
2023/08/13 09:57:22;;;;;;;1.67;1.23;;;25.70;55.40;;;;;;5080906;28;20028;-60
2023/08/13 09:59:49;;;;;;;1.55;1.02;;;25.70;55.40;;;;;;5079475;28;20442;-60
2023/08/13 10:02:15;;;;;;;1.33;1.10;;;25.70;55.40;;;;;;5081199;28;20055;-60
2023/08/13 10:04:41;;;;;;;1.80;1.40;;;25.70;55.40;;;;;;5079072;28;20055;-60
2023/08/13 10:07:08;;;;;;;1.20;1.10;;;25.70;55.40;;;;;;5080325;28;20054;-61
2023/08/13 10:09:35;;;;;;;1.33;1.10;;;25.70;55.40;;;;;;5075442;28;20028;-60
2023/08/13 10:12:01;;;;;;;1.60;1.10;;;25.70;55.40;;;;;;5081218;28;20024;-63
2023/08/13 10:14:28;;;;;;;1.63;1.15;;;25.70;55.40;;;;;;5079256;28;20384;-59
2023/08/13 10:16:54;;;;;;;1.25;1.08;;;25.70;55.40;;;;;;5062259;28;20020;-62
2023/08/13 10:19:31;;;;;;;1.90;1.13;;;25.70;55.40;;;;;;5079157;28;20024;-60
2023/08/13 10:21:57;;;;;;;1.48;1.13;;;25.70;55.40;;;;;;5076550;28;20510;-60
2023/08/13 10:24:23;;;;;;;1.50;1.10;;;25.70;55.50;;;;;;5076310;28;20158;-62
2023/08/13 10:26:50;;;;;;;1.42;1.13;;;25.70;55.40;;;;;;5078913;28;20115;-59
2023/08/13 10:29:20;;;;;;;1.60;1.10;;;25.70;55.40;;;;;;5079986;28;20040;-60
2023/08/13 10:31:55;;;;;;;1.52;1.20;;;25.70;55.50;;;;;;5076720;28;20439;-61
2023/08/13 10:34:48;;;;;;;1.52;1.15;;;25.70;55.50;;;;;;5077540;28;20033;-63
2023/08/13 10:37:21;;;;;;;1.42;1.10;;;25.70;55.50;;;;;;5066730;28;20110;-60
2023/08/13 10:40:06;;;;;;;1.35;1.10;;;25.70;55.50;;;;;;5078919;28;20426;-69
2023/08/13 10:42:36;;;;;;;1.50;1.10;;;25.70;55.50;;;;;;5077355;28;20032;-70
2023/08/13 10:45:07;;;;;;;1.30;1.05;;;25.70;55.50;;;;;;5077136;28;20022;-68
2023/08/13 10:47:52;;;;;;;1.60;1.20;;;25.70;55.50;;;;;;5077254;28;20437;-71
2023/08/13 10:50:36;;;;;;;1.50;1.10;;;25.70;55.60;;;;;;5078831;28;20451;-70
2023/08/13 10:53:03;;;;;;;1.42;1.10;;;25.70;55.50;;;;;;5079550;28;20028;-69
2023/08/13 10:55:32;;;;;;;1.48;1.10;;;25.70;55.50;;;;;;5076883;28;20051;-69
2023/08/13 10:57:58;;;;;;;1.67;1.10;;;25.70;55.50;;;;;;5077485;28;20034;-70
2023/08/13 11:00:26;;;;;;;1.63;1.10;;;25.70;55.40;;;;;;5078209;28;20060;-70
2023/08/13 11:02:53;;;;;;;1.65;1.10;;;25.70;55.40;;;;;;5063187;28;20480;-70
2023/08/13 11:05:22;;;;;;;1.70;1.30;;;25.70;55.30;;;;;;5077264;28;20047;-70
2023/08/13 11:07:48;;;;;;;1.70;1.40;;;25.70;55.30;;;;;;5076297;28;20035;-70
2023/08/13 11:10:17;;;;;;;1.80;1.23;;;25.70;55.30;;;;;;5077828;28;20400;-69
2023/08/13 11:12:44;;;;;;;1.52;1.27;;;25.70;55.30;;;;;;5076401;28;20101;-69
2023/08/13 11:15:10;;;;;;;1.65;1.20;;;25.70;55.30;;;;;;5077581;28;20023;-70
2023/08/13 11:17:35;;;;;;;2.13;1.35;;;25.70;55.30;;;;;;5077029;28;20012;-69
2023/08/13 11:20:05;;;;;;;1.83;1.17;;;25.70;55.30;;;;;;5077807;28;20034;-69
2023/08/13 11:22:31;;;;;;;1.52;1.20;;;25.70;55.30;;;;;;5077581;28;20033;-70
2023/08/13 11:24:57;;;;;;;1.88;1.20;;;25.70;55.30;;;;;;5076327;28;20506;-69
2023/08/13 11:27:29;;;;;;;1.77;1.30;;;25.70;55.30;;;;;;5077111;28;20051;-70
2023/08/13 11:29:54;;;;;;;1.77;1.33;;;25.70;55.30;;;;;;5079906;28;20436;-69
2023/08/13 11:32:20;;;;;;;2.22;1.30;;;25.70;55.30;;;;;;5080072;28;20038;-70
2023/08/13 11:34:46;;;;;;;1.83;1.30;;;25.70;55.30;;;;;;5083369;28;20103;-70
2023/08/13 11:37:12;;;;;;;1.63;1.30;;;25.70;55.30;;;;;;5080130;28;20914;-71
2023/08/13 11:39:38;;;;;;;2.05;1.33;;;25.70;55.30;;;;;;5079203;28;20741;-69
2023/08/13 11:42:08;;;;;;;1.85;1.30;;;25.70;55.30;;;;;;5082023;28;20119;-69
2023/08/13 11:44:35;;;;;;;1.70;1.30;;;25.70;55.40;;;;;;5081733;28;20113;-70
2023/08/13 11:47:01;;;;;;;1.48;1.23;;;25.70;55.30;;;;;;5081488;28;20107;-69
2023/08/13 11:49:27;;;;;;;2.58;1.20;;;25.80;55.40;;;;;;5079859;28;20424;-64
2023/08/13 11:51:57;;;;;;;2.30;1.20;;;25.70;55.30;;;;;;5080166;28;20480;-64
2023/08/13 11:54:24;;;;;;;1.80;1.30;;;25.70;55.40;;;;;;5077985;28;20392;-64
2023/08/13 11:56:52;;;;;;;1.77;1.30;;;25.70;55.40;;;;;;5080246;28;20513;-64
2023/08/13 11:59:23;;;;;;;1.45;1.13;;;25.80;55.60;;;;;;5081206;28;20177;-70
2023/08/13 12:01:55;;;;;;;1.60;1.30;;;25.80;55.60;;;;;;5080851;28;20314;-70
2023/08/13 12:04:22;;;;;;;1.52;1.20;;;25.80;55.60;;;;;;5080044;28;20024;-70
2023/08/13 12:06:48;;;;;;;1.50;1.23;;;25.80;55.60;;;;;;5080495;28;20542;-69
2023/08/13 12:09:14;;;;;;;1.92;1.20;;;25.80;55.70;;;;;;5080426;28;20028;-71
2023/08/13 12:11:40;;;;;;;1.40;1.15;;;25.80;55.70;;;;;;5079975;28;20138;-70
2023/08/13 12:14:07;;;;;;;1.60;1.30;;;25.80;55.70;;;;;;5080067;28;20024;-69
2023/08/13 12:16:33;;;;;;;1.90;1.30;;;25.80;56.20;;;;;;5081111;28;20095;-70
2023/08/13 12:19:00;;;;;;;2.10;1.20;;;25.80;55.70;;;;;;5067246;28;20471;-70
2023/08/13 12:21:26;;;;;;;2.05;1.20;;;25.80;55.70;;;;;;5082237;28;20484;-70
2023/08/13 12:23:51;;;;;;;1.30;1.10;;;25.80;55.70;;;;;;5080827;28;20028;-70
2023/08/13 12:26:17;;;;;;;2.75;1.30;;;25.80;55.70;;;;;;5077208;28;20416;-70
2023/08/13 12:28:47;;;;;;;1.45;1.17;;;25.80;55.70;;;;;;5077770;28;20066;-71
2023/08/13 12:31:13;;;;;;;1.95;1.20;;;25.80;55.70;;;;;;5079113;28;20472;-70
2023/08/13 12:33:39;;;;;;;1.95;1.30;;;25.80;55.80;;;;;;5079314;28;20039;-70
2023/08/13 12:36:04;;;;;;;1.60;1.10;;;25.80;55.80;;;;;;5078037;28;20075;-70
2023/08/13 12:38:31;;;;;;;1.52;1.17;;;25.80;55.80;;;;;;5080055;28;20056;-70
2023/08/13 12:40:57;;;;;;;1.60;1.20;;;25.80;55.80;;;;;;5077429;28;20379;-70
2023/08/13 12:43:22;;;;;;;1.48;1.10;;;25.80;55.80;;;;;;5081237;28;20107;-70
2023/08/13 12:45:48;;;;;;;1.65;1.30;;;25.80;55.80;;;;;;5077676;28;20488;-70